createdAt,value
2022-11-28T00:00:21.586Z,984.1
2022-11-28T00:02:23.198Z,983.9
2022-11-28T00:04:24.586Z,983.9
2022-11-28T00:06:26.269Z,983.9
2022-11-28T00:08:27.920Z,983.9
2022-11-28T00:10:29.449Z,983.8
2022-11-28T00:12:31.393Z,983.7
2022-11-28T00:14:32.682Z,983.8
2022-11-28T00:16:34.194Z,983.7
2022-11-28T00:18:35.269Z,983.7
2022-11-28T00:20:37.132Z,983.7
2022-11-28T00:22:38.903Z,983.7
2022-11-28T00:24:40.546Z,983.6
2022-11-28T00:26:41.875Z,983.6
2022-11-28T00:28:43.815Z,983.8
2022-11-28T00:30:45.592Z,983.7
2022-11-28T00:32:47.681Z,983.6
2022-11-28T00:34:49.576Z,983.7
2022-11-28T00:36:50.536Z,983.5
2022-11-28T00:38:52.329Z,983.5
2022-11-28T00:40:53.661Z,983.5
2022-11-28T00:42:54.670Z,983.4
2022-11-28T00:44:55.863Z,983.5
2022-11-28T00:46:57.118Z,983.5
2022-11-28T00:48:58.302Z,983.5
2022-11-28T00:50:59.559Z,983.5
2022-11-28T00:55:02.870Z,983.6
2022-11-28T00:57:04.879Z,983.5
2022-11-28T00:59:06.258Z,983.5
2022-11-28T01:01:07.817Z,983.5
2022-11-28T01:03:09.191Z,983.4
2022-11-28T01:05:11.076Z,983.6
2022-11-28T01:07:12.232Z,983.5
2022-11-28T01:09:13.603Z,983.6
2022-11-28T01:11:14.726Z,983.6
2022-11-28T01:13:15.728Z,983.7
2022-11-28T01:15:17.175Z,983.8
2022-11-28T01:17:19.079Z,983.7
2022-11-28T01:19:20.666Z,983.7
2022-11-28T01:21:21.849Z,983.8
2022-11-28T01:23:23.656Z,983.8
2022-11-28T01:25:25.385Z,983.8
2022-11-28T01:27:27.030Z,983.7
2022-11-28T01:29:28.589Z,983.6
2022-11-28T01:31:29.768Z,983.6
2022-11-28T01:33:30.765Z,983.8
2022-11-28T01:35:32.251Z,983.6
2022-11-28T01:37:33.592Z,983.6
2022-11-28T01:39:35.017Z,983.6
2022-11-28T01:41:36.519Z,983.6
2022-11-28T01:43:37.747Z,983.6
2022-11-28T01:45:39.679Z,983.6
2022-11-28T01:47:40.683Z,983.7
2022-11-28T01:49:42.339Z,983.6
2022-11-28T01:51:43.469Z,983.5
2022-11-28T01:53:45.456Z,983.4
2022-11-28T01:55:47.159Z,983.3
2022-11-28T01:57:49.074Z,983.3
2022-11-28T01:59:50.635Z,983.2
2022-11-28T02:03:54.008Z,983.1
2022-11-28T02:05:55.551Z,983
2022-11-28T02:07:56.686Z,983
2022-11-28T02:09:58.305Z,983
2022-11-28T02:14:02.140Z,983.1
2022-11-28T02:16:03.244Z,983
2022-11-28T02:18:04.852Z,983
2022-11-28T02:20:05.884Z,982.9
2022-11-28T02:22:07.664Z,982.9
2022-11-28T02:24:09.043Z,982.9
2022-11-28T02:26:10.250Z,982.9
2022-11-28T02:28:12.243Z,982.9
2022-11-28T02:30:13.312Z,983
2022-11-28T02:32:15.100Z,983
2022-11-28T02:34:16.359Z,982.9
2022-11-28T02:36:17.875Z,982.9
2022-11-28T02:38:19.326Z,983
2022-11-28T02:40:20.384Z,983
2022-11-28T02:42:21.917Z,983
2022-11-28T02:44:23.530Z,982.9
2022-11-28T02:46:24.756Z,982.8
2022-11-28T02:48:26.391Z,982.9
2022-11-28T02:50:28.164Z,982.8
2022-11-28T02:52:29.690Z,982.9
2022-11-28T02:56:32.880Z,982.7
2022-11-28T02:58:34.634Z,982.8
2022-11-28T03:02:37.182Z,982.7
2022-11-28T03:04:38.992Z,982.7
2022-11-28T03:06:40.555Z,982.6
2022-11-28T03:08:42.373Z,982.6
2022-11-28T03:10:43.473Z,982.5
2022-11-28T03:12:45.176Z,982.5
2022-11-28T03:14:46.739Z,982.5
2022-11-28T03:16:48.503Z,982.6
2022-11-28T03:18:49.985Z,982.5
2022-11-28T03:20:51.331Z,982.5
2022-11-28T03:22:52.947Z,982.4
2022-11-28T03:24:54.815Z,982.3
2022-11-28T03:26:55.984Z,982.2
2022-11-28T03:28:56.991Z,982.2
2022-11-28T03:30:58.318Z,982.2
2022-11-28T03:32:59.916Z,982.2
2022-11-28T03:35:01.259Z,982.2
2022-11-28T03:37:03.148Z,982.2
2022-11-28T03:39:04.565Z,982.1
2022-11-28T03:41:06.352Z,982
2022-11-28T03:45:09.919Z,981.9
2022-11-28T03:47:11.198Z,981.8
2022-11-28T03:49:12.784Z,981.6
2022-11-28T03:51:14.279Z,981.5
2022-11-28T03:53:15.495Z,981.3
2022-11-28T03:55:16.635Z,981.3
2022-11-28T03:57:18.538Z,981.5
2022-11-28T03:59:20.486Z,981.8
2022-11-28T04:01:22.289Z,982.4
2022-11-28T04:03:23.310Z,982.3
2022-11-28T04:05:24.852Z,982.1
2022-11-28T04:07:26.297Z,982.3
2022-11-28T04:09:27.993Z,982.4
2022-11-28T04:11:29.609Z,982.3
2022-11-28T04:13:31.097Z,982.4
2022-11-28T04:15:32.447Z,982.3
2022-11-28T04:17:34.120Z,982.2
2022-11-28T04:19:35.642Z,982.2
2022-11-28T04:21:37.405Z,982.1
2022-11-28T04:23:38.767Z,982
2022-11-28T04:25:40.503Z,982.1
2022-11-28T04:27:42.511Z,982.1
2022-11-28T04:29:44.369Z,982
2022-11-28T04:31:45.764Z,982
2022-11-28T04:33:46.954Z,982
2022-11-28T04:35:48.958Z,982.1
2022-11-28T04:37:50.402Z,982
2022-11-28T04:39:51.963Z,982
2022-11-28T04:43:55.490Z,981.9
2022-11-28T04:45:57.285Z,981.8
2022-11-28T04:47:58.417Z,981.7
2022-11-28T04:49:59.684Z,981.7
2022-11-28T04:52:01.232Z,981.7
2022-11-28T04:54:02.448Z,981.9
2022-11-28T04:56:04.111Z,981.8
2022-11-28T04:58:05.825Z,981.8
2022-11-28T05:00:06.902Z,981.6
2022-11-28T05:02:08.865Z,981.6
2022-11-28T05:04:10.247Z,981.5
2022-11-28T05:06:11.300Z,981.5
2022-11-28T05:08:12.469Z,981.5
2022-11-28T05:10:13.954Z,981.5
2022-11-28T05:12:15.132Z,981.5
2022-11-28T05:14:16.947Z,981.5
2022-11-28T05:16:18.400Z,981.7
2022-11-28T05:18:20.154Z,981.8
2022-11-28T05:20:21.760Z,981.8
2022-11-28T05:22:22.968Z,982
2022-11-28T05:26:25.494Z,981.9
2022-11-28T05:28:27.398Z,982
2022-11-28T05:30:29.013Z,981.9
2022-11-28T05:32:30.247Z,981.8
2022-11-28T05:34:31.910Z,981.7
2022-11-28T05:36:33.897Z,981.6
2022-11-28T05:38:35.696Z,981.8
2022-11-28T05:40:37.087Z,981.8
2022-11-28T05:42:38.547Z,981.8
2022-11-28T05:44:40.152Z,981.7
2022-11-28T05:46:42.094Z,981.7
2022-11-28T05:48:43.210Z,981.7
2022-11-28T05:50:44.862Z,981.7
2022-11-28T05:52:46.482Z,981.6
2022-11-28T05:54:47.918Z,981.5
2022-11-28T05:56:48.980Z,981.5
2022-11-28T05:58:50.082Z,981.6
2022-11-28T06:00:51.302Z,981.5
2022-11-28T06:02:54.952Z,981.5
2022-11-28T06:04:54.529Z,981.5
2022-11-28T06:06:55.702Z,981.5
2022-11-28T06:09:04.933Z,981.4
2022-11-28T06:10:58.852Z,981.5
2022-11-28T06:13:00.431Z,981.4
2022-11-28T06:15:01.996Z,981.6
2022-11-28T06:17:03.833Z,981.6
2022-11-28T06:19:05.204Z,981.6
2022-11-28T06:21:06.692Z,981.5
2022-11-28T06:23:08.363Z,981.5
2022-11-28T06:25:10.090Z,981.6
2022-11-28T06:27:11.570Z,981.6
2022-11-28T06:29:13.223Z,981.7
2022-11-28T06:29:57.110Z,981.7
2022-11-28T06:31:58.634Z,981.9
2022-11-28T06:36:00.912Z,981.8
2022-11-28T06:38:02.103Z,981.8
2022-11-28T06:40:03.462Z,981.7
2022-11-28T06:42:05.198Z,981.7
2022-11-28T06:44:06.522Z,981.6
2022-11-28T06:46:10.803Z,981.6
2022-11-28T06:48:09.942Z,981.9
2022-11-28T06:50:11.211Z,981.9
2022-11-28T06:52:12.967Z,981.9
2022-11-28T06:54:14.694Z,981.8
2022-11-28T06:56:16.416Z,981.9
2022-11-28T06:58:17.713Z,981.9
2022-11-28T07:00:19.120Z,981.9
2022-11-28T07:02:21.168Z,981.9
2022-11-28T07:04:22.484Z,981.8
2022-11-28T07:06:24.194Z,981.8
2022-11-28T07:08:25.679Z,981.7
2022-11-28T07:10:27.051Z,981.8
2022-11-28T07:12:28.700Z,981.8
2022-11-28T07:14:29.894Z,981.9
2022-11-28T07:16:31.132Z,981.8
2022-11-28T07:18:32.197Z,981.9
2022-11-28T07:20:33.254Z,981.8
2022-11-28T07:22:35.212Z,981.8
2022-11-28T07:24:36.380Z,981.8
2022-11-28T07:26:38.195Z,982
2022-11-28T07:28:39.360Z,981.9
2022-11-28T07:30:41.198Z,981.9
2022-11-28T07:32:43.190Z,982
2022-11-28T07:34:47.779Z,981.8
2022-11-28T07:36:46.433Z,981.8
2022-11-28T07:38:48.243Z,982
2022-11-28T07:40:49.621Z,982
2022-11-28T07:42:50.679Z,982.1
2022-11-28T07:44:51.793Z,981.9
2022-11-28T07:46:53.856Z,981.8
2022-11-28T07:48:55.273Z,982
2022-11-28T07:50:56.536Z,981.8
2022-11-28T07:53:00.712Z,981.7
2022-11-28T07:54:59.410Z,981.7
2022-11-28T07:57:13.327Z,981.6
2022-11-28T07:59:03.451Z,981.7
2022-11-28T08:01:04.017Z,981.8
2022-11-28T08:03:05.484Z,981.7
2022-11-28T08:05:06.699Z,981.8
2022-11-28T08:07:07.870Z,981.8
2022-11-28T08:09:09.083Z,981.8
2022-11-28T08:11:10.313Z,981.7
2022-11-28T08:13:11.525Z,981.7
2022-11-28T08:15:13.067Z,981.9
2022-11-28T08:17:14.824Z,981.7
2022-11-28T08:19:15.916Z,981.8
2022-11-28T08:21:17.173Z,981.8
2022-11-28T08:23:18.879Z,981.7
2022-11-28T08:25:20.019Z,981.7
2022-11-28T08:27:21.908Z,981.8
2022-11-28T08:29:23.596Z,981.9
2022-11-28T08:31:25.267Z,981.8
2022-11-28T08:33:26.885Z,981.9
2022-11-28T08:35:28.184Z,981.9
2022-11-28T08:37:29.783Z,981.9
2022-11-28T08:39:31.719Z,981.8
2022-11-28T08:41:32.869Z,981.9
2022-11-28T08:43:34.825Z,981.9
2022-11-28T08:45:36.839Z,982
2022-11-28T08:47:38.003Z,982
2022-11-28T08:49:39.436Z,982
2022-11-28T08:53:43.174Z,982
2022-11-28T08:55:43.418Z,981.9
2022-11-28T08:57:44.763Z,982
2022-11-28T08:59:46.516Z,982
2022-11-28T09:01:47.782Z,982
2022-11-28T09:03:49.101Z,982
2022-11-28T09:05:50.443Z,982
2022-11-28T09:07:52.213Z,982
2022-11-28T09:09:54.126Z,982
2022-11-28T09:11:55.584Z,982.1
2022-11-28T09:13:56.708Z,981.9
2022-11-28T09:15:57.955Z,982
2022-11-28T09:17:59.095Z,982
2022-11-28T09:20:00.821Z,982
2022-11-28T09:22:02.313Z,981.9
2022-11-28T09:24:04.253Z,981.9
2022-11-28T09:26:06.025Z,982.1
2022-11-28T09:28:07.077Z,982
2022-11-28T09:30:08.699Z,981.9
2022-11-28T09:32:09.781Z,981.9
2022-11-28T09:34:10.776Z,981.9
2022-11-28T09:36:11.863Z,981.9
2022-11-28T09:38:13.178Z,981.9
2022-11-28T09:42:16.100Z,981.9
2022-11-28T09:44:17.217Z,981.7
2022-11-28T09:46:18.672Z,981.9
2022-11-28T09:48:20.507Z,981.7
2022-11-28T09:50:22.173Z,981.8
2022-11-28T09:52:23.401Z,981.9
2022-11-28T09:54:24.369Z,981.9
2022-11-28T09:56:25.487Z,981.9
2022-11-28T09:58:26.770Z,981.9
2022-11-28T10:00:28.074Z,981.8
2022-11-28T10:02:31.039Z,981.8
2022-11-28T10:04:31.424Z,981.8
2022-11-28T10:06:33.349Z,981.8
2022-11-28T10:08:34.469Z,981.8
2022-11-28T10:10:35.535Z,981.8
2022-11-28T10:12:36.872Z,981.8
2022-11-28T10:14:38.027Z,981.8
2022-11-28T10:16:39.745Z,981.8
2022-11-28T10:18:40.633Z,981.7
2022-11-28T10:20:41.655Z,981.8
2022-11-28T10:22:43.225Z,981.7
2022-11-28T10:24:44.414Z,981.8
2022-11-28T10:26:45.905Z,981.8
2022-11-28T10:28:47.064Z,981.8
2022-11-28T10:30:49.128Z,981.8
2022-11-28T10:32:50.553Z,981.8
2022-11-28T10:34:51.731Z,981.7
2022-11-28T10:36:53.162Z,981.8
2022-11-28T10:38:54.775Z,981.8
2022-11-28T10:40:56.364Z,981.9
2022-11-28T10:42:57.842Z,981.8
2022-11-28T10:44:59.703Z,981.8
2022-11-28T10:47:01.590Z,981.7
2022-11-28T10:49:02.792Z,981.8
2022-11-28T10:51:04.738Z,981.7
2022-11-28T10:53:05.818Z,981.7
2022-11-28T10:55:07.013Z,981.5
2022-11-28T10:57:08.045Z,981.6
2022-11-28T10:59:09.888Z,981.7
2022-11-28T11:01:11.575Z,981.5
2022-11-28T11:03:12.693Z,981.6
2022-11-28T11:05:14.199Z,981.5
2022-11-28T11:07:20.084Z,981.6
2022-11-28T11:09:17.325Z,981.5
2022-11-28T11:11:18.928Z,981.6
2022-11-28T11:13:20.123Z,981.5
2022-11-28T11:15:22.079Z,981.5
2022-11-28T11:17:23.687Z,981.5
2022-11-28T11:19:25.309Z,981.4
2022-11-28T11:21:26.309Z,981.4
2022-11-28T11:23:28.216Z,981.4
2022-11-28T11:25:29.981Z,981.5
2022-11-28T11:27:31.368Z,981.6
2022-11-28T11:29:32.925Z,981.6
2022-11-28T11:31:33.966Z,981.5
2022-11-28T11:33:35.821Z,981.5
2022-11-28T11:35:37.599Z,981.5
2022-11-28T11:37:39.395Z,981.4
2022-11-28T11:39:40.676Z,981.4
2022-11-28T11:41:42.346Z,981.3
2022-11-28T11:43:44.216Z,981.4
2022-11-28T11:45:49.770Z,981.4
2022-11-28T11:49:49.216Z,981.4
2022-11-28T11:51:50.482Z,981.4
2022-11-28T11:53:51.858Z,981.3
2022-11-28T11:55:52.868Z,981.3
2022-11-28T11:59:56.428Z,981.3
2022-11-28T12:01:57.724Z,981.1
2022-11-28T12:03:59.189Z,981.2
2022-11-28T12:06:15.211Z,981.1
2022-11-28T12:08:02.062Z,980.9
2022-11-28T12:10:04.832Z,980.9
2022-11-28T12:12:05.069Z,980.9
2022-11-28T12:14:06.723Z,980.9
2022-11-28T12:16:08.466Z,981
2022-11-28T12:18:10.352Z,981
2022-11-28T12:20:11.854Z,981.1
2022-11-28T12:22:13.420Z,981.1
2022-11-28T12:24:15.197Z,981.2
2022-11-28T12:26:16.468Z,981.1
2022-11-28T12:28:18.051Z,981.1
2022-11-28T12:32:21.632Z,981.3
2022-11-28T12:34:22.842Z,981.1
2022-11-28T12:36:24.225Z,981.1
2022-11-28T12:38:26.118Z,981.1
2022-11-28T12:40:27.255Z,981.1
2022-11-28T12:42:28.602Z,981
2022-11-28T12:44:29.860Z,981.1
2022-11-28T12:46:30.979Z,981
2022-11-28T12:48:32.610Z,981
2022-11-28T12:50:34.125Z,981
2022-11-28T12:52:35.276Z,981
2022-11-28T12:54:37.047Z,981
2022-11-28T12:56:38.648Z,980.9
2022-11-28T12:58:40.053Z,980.9
2022-11-28T13:00:41.673Z,980.9
2022-11-28T13:02:43.050Z,981
2022-11-28T13:04:44.570Z,981
2022-11-28T13:06:45.497Z,981
2022-11-28T13:08:48.884Z,981.1
2022-11-28T13:10:48.446Z,981.1
2022-11-28T13:12:49.956Z,981.1
2022-11-28T13:14:51.723Z,981
2022-11-28T13:15:35.668Z,980.9
2022-11-28T13:17:37.477Z,981
2022-11-28T13:19:38.702Z,981
2022-11-28T13:21:40.448Z,981
2022-11-28T13:25:43.745Z,981
2022-11-28T13:27:45.183Z,980.9
2022-11-28T13:29:46.417Z,981
2022-11-28T13:31:48.294Z,980.9
2022-11-28T13:33:49.449Z,980.9
2022-11-28T13:35:50.530Z,981.1
2022-11-28T13:39:53.937Z,980.9
2022-11-28T13:42:21.693Z,980.9
2022-11-28T13:43:56.814Z,980.9
2022-11-28T13:45:58.027Z,981
2022-11-28T13:47:59.517Z,980.8
2022-11-28T13:50:02.196Z,980.9
2022-11-28T13:52:02.397Z,980.9
2022-11-28T13:54:03.493Z,981
2022-11-28T13:56:05.451Z,980.9
2022-11-28T13:58:06.402Z,981
2022-11-28T14:00:07.652Z,980.9
2022-11-28T14:02:09.634Z,980.9
2022-11-28T14:04:10.616Z,980.9
2022-11-28T14:06:12.553Z,980.9
2022-11-28T14:08:13.696Z,980.9
2022-11-28T14:10:15.069Z,981
2022-11-28T14:12:16.627Z,980.9
2022-11-28T14:14:18.549Z,981
2022-11-28T14:16:20.335Z,980.8
2022-11-28T14:18:39.537Z,981
2022-11-28T14:20:23.323Z,980.9
2022-11-28T14:24:25.543Z,980.9
2022-11-28T14:26:26.603Z,980.9
2022-11-28T14:28:27.609Z,980.9
2022-11-28T14:30:28.626Z,981
2022-11-28T14:32:30.836Z,980.9
2022-11-28T14:34:31.534Z,980.9
2022-11-28T14:36:32.669Z,980.9
2022-11-28T14:38:33.631Z,981
2022-11-28T14:40:34.746Z,980.9
2022-11-28T14:43:00.355Z,981
2022-11-28T14:44:36.984Z,980.9
2022-11-28T14:46:38.091Z,981
2022-11-28T14:50:40.848Z,981
2022-11-28T14:52:42.533Z,981
2022-11-28T14:54:44.136Z,981
2022-11-28T14:56:45.242Z,981
2022-11-28T15:00:48.089Z,981
2022-11-28T15:02:49.826Z,981
2022-11-28T15:04:50.978Z,981
2022-11-28T15:06:52.914Z,981
2022-11-28T15:08:54.080Z,981
2022-11-28T15:10:55.509Z,981
2022-11-28T15:12:57.140Z,981
2022-11-28T15:14:58.428Z,981
2022-11-28T15:16:59.552Z,980.9
2022-11-28T15:19:00.690Z,981
2022-11-28T15:21:02.594Z,981
2022-11-28T15:23:03.849Z,981
2022-11-28T15:25:05.599Z,981.1
2022-11-28T15:27:07.442Z,981
2022-11-28T15:29:09.101Z,981
2022-11-28T15:31:10.183Z,981.1
2022-11-28T15:33:11.538Z,981
2022-11-28T15:35:13.441Z,981
2022-11-28T15:37:15.390Z,981
2022-11-28T15:39:17.126Z,981.1
2022-11-28T15:41:19.088Z,980.9
2022-11-28T15:43:20.687Z,981
2022-11-28T15:45:22.368Z,981
2022-11-28T15:49:24.735Z,980.9
2022-11-28T15:51:26.001Z,981.1
2022-11-28T15:53:27.650Z,981
2022-11-28T15:55:28.905Z,981
2022-11-28T15:57:30.062Z,981
2022-11-28T15:59:31.667Z,981
2022-11-28T16:01:32.920Z,981
2022-11-28T16:03:34.210Z,981.1
2022-11-28T16:05:35.193Z,981.1
2022-11-28T16:07:40.575Z,981
2022-11-28T16:09:38.011Z,981.1
2022-11-28T16:11:39.771Z,981.1
2022-11-28T16:13:41.304Z,981
2022-11-28T16:15:47.024Z,981
2022-11-28T16:17:44.243Z,981
2022-11-28T16:19:46.039Z,981
2022-11-28T16:21:47.821Z,981
2022-11-28T16:23:49.057Z,981.1
2022-11-28T16:25:50.419Z,981.1
2022-11-28T16:27:51.653Z,981.1
2022-11-28T16:29:53.228Z,981.1
2022-11-28T16:31:54.319Z,981.1
2022-11-28T16:33:55.508Z,981.1
2022-11-28T16:35:56.750Z,981.1
2022-11-28T16:37:57.782Z,981
2022-11-28T16:39:59.157Z,981
2022-11-28T16:42:00.562Z,981.1
2022-11-28T16:44:02.450Z,981
2022-11-28T16:48:05.172Z,981.1
2022-11-28T16:50:08.159Z,981.1
2022-11-28T16:52:08.144Z,981.1
2022-11-28T16:54:10.049Z,981.1
2022-11-28T16:56:12.064Z,981.1
2022-11-28T16:58:13.495Z,981.2
2022-11-28T17:00:14.804Z,981.1
2022-11-28T17:02:16.009Z,981.1
2022-11-28T17:04:17.693Z,981.1
2022-11-28T17:06:18.949Z,981.2
2022-11-28T17:08:21.151Z,981.2
2022-11-28T17:10:21.781Z,981.2
2022-11-28T17:12:22.909Z,981.2
2022-11-28T17:14:24.672Z,981.2
2022-11-28T17:16:26.505Z,981.3
2022-11-28T17:18:27.498Z,981.2
2022-11-28T17:20:29.179Z,981.2
2022-11-28T17:22:30.879Z,981.2
2022-11-28T17:24:31.961Z,981.1
2022-11-28T17:26:33.272Z,981.2
2022-11-28T17:30:36.074Z,981.1
2022-11-28T17:32:37.195Z,981.2
2022-11-28T17:34:38.887Z,981.2
2022-11-28T17:36:39.951Z,981.2
2022-11-28T17:38:41.226Z,981.3
2022-11-28T17:40:42.410Z,981.3
2022-11-28T17:42:44.129Z,981.3
2022-11-28T17:44:45.499Z,981.2
2022-11-28T17:46:46.621Z,981.2
2022-11-28T17:48:48.015Z,981.2
2022-11-28T17:50:49.517Z,981.2
2022-11-28T17:52:51.209Z,981.2
2022-11-28T17:56:54.415Z,981.3
2022-11-28T17:58:56.385Z,981.2
2022-11-28T18:01:00.113Z,981.2
2022-11-28T18:02:58.683Z,981.3
2022-11-28T18:04:59.776Z,981.3
2022-11-28T18:07:01.135Z,981.3
2022-11-28T18:09:04.893Z,981.2
2022-11-28T18:13:05.634Z,981.2
2022-11-28T18:15:06.790Z,981.2
2022-11-28T18:17:08.507Z,981.3
2022-11-28T18:19:09.768Z,981.3
2022-11-28T18:21:11.428Z,981.3
2022-11-28T18:23:13.159Z,981.3
2022-11-28T18:25:14.494Z,981.2
2022-11-28T18:27:15.743Z,981.2
2022-11-28T18:29:17.383Z,981.2
2022-11-28T18:31:18.844Z,981.2
2022-11-28T18:33:20.234Z,981.3
2022-11-28T18:35:21.614Z,981.2
2022-11-28T18:37:22.830Z,981.2
2022-11-28T18:39:24.328Z,981.2
2022-11-28T18:41:34.202Z,981.3
2022-11-28T18:43:28.152Z,981.3
2022-11-28T18:45:30.124Z,981.2
2022-11-28T18:47:31.502Z,981.3
2022-11-28T18:49:32.709Z,981.2
2022-11-28T18:51:34.520Z,981.3
2022-11-28T18:53:35.586Z,981.3
2022-11-28T18:55:37.178Z,981.3
2022-11-28T18:57:38.362Z,981.4
2022-11-28T18:59:40.051Z,981.4
2022-11-28T19:01:41.249Z,981.3
2022-11-28T19:03:42.539Z,981.4
2022-11-28T19:05:44.452Z,981.3
2022-11-28T19:07:46.409Z,981.3
2022-11-28T19:11:49.920Z,981.4
2022-11-28T19:13:51.825Z,981.4
2022-11-28T19:15:53.723Z,981.4
2022-11-28T19:17:55.360Z,981.4
2022-11-28T19:19:57.060Z,981.5
2022-11-28T19:21:58.207Z,981.5
2022-11-28T19:23:59.315Z,981.5
2022-11-28T19:26:00.590Z,981.4
2022-11-28T19:28:01.669Z,981.4
2022-11-28T19:30:02.976Z,981.4
2022-11-28T19:32:04.706Z,981.4
2022-11-28T19:34:05.812Z,981.4
2022-11-28T19:36:07.606Z,981.4
2022-11-28T19:38:09.255Z,981.4
2022-11-28T19:40:10.570Z,981.4
2022-11-28T19:42:11.718Z,981.4
2022-11-28T19:44:13.467Z,981.4
2022-11-28T19:46:15.319Z,981.4
2022-11-28T19:48:16.828Z,981.4
2022-11-28T19:50:17.904Z,981.4
2022-11-28T19:54:21.317Z,981.4
2022-11-28T19:56:23.214Z,981.4
2022-11-28T19:58:25.068Z,981.4
2022-11-28T20:00:26.504Z,981.3
2022-11-28T20:01:10.432Z,981.4
2022-11-28T20:03:12.252Z,981.3
2022-11-28T20:05:13.391Z,981.4
2022-11-28T20:07:15.289Z,981.4
2022-11-28T20:09:16.846Z,981.4
2022-11-28T20:11:18.439Z,981.5
2022-11-28T20:13:20.184Z,981.3
2022-11-28T20:15:22.187Z,981.4
2022-11-28T20:17:23.574Z,981.4
2022-11-28T20:19:24.595Z,981.3
2022-11-28T20:21:35.549Z,981.4
2022-11-28T20:23:27.954Z,981.4
2022-11-28T20:25:29.792Z,981.5
2022-11-28T20:27:31.253Z,981.5
2022-11-28T20:31:34.725Z,981.5
2022-11-28T20:33:36.351Z,981.5
2022-11-28T20:35:37.399Z,981.5
2022-11-28T20:37:38.519Z,981.5
2022-11-28T20:39:40.112Z,981.5
2022-11-28T20:41:41.439Z,981.5
2022-11-28T20:43:42.458Z,981.5
2022-11-28T20:45:43.706Z,981.5
2022-11-28T20:47:49.591Z,981.5
2022-11-28T20:49:47.095Z,981.5
2022-11-28T20:51:48.881Z,981.4
2022-11-28T20:53:50.756Z,981.4
2022-11-28T20:55:52.249Z,981.4
2022-11-28T20:57:54.165Z,981.5
2022-11-28T20:59:55.874Z,981.5
2022-11-28T21:01:57.439Z,981.4
2022-11-28T21:03:58.523Z,981.4
2022-11-28T21:06:01.337Z,981.4
2022-11-28T21:08:01.553Z,981.5
2022-11-28T21:10:03.443Z,981.4
2022-11-28T21:14:06.912Z,981.4
2022-11-28T21:16:08.765Z,981.5
2022-11-28T21:18:09.768Z,981.4
2022-11-28T21:20:11.053Z,981.4
2022-11-28T21:22:12.732Z,981.3
2022-11-28T21:24:14.582Z,981.5
2022-11-28T21:26:16.441Z,981.5
2022-11-28T21:28:17.527Z,981.5
2022-11-28T21:30:19.335Z,981.5
2022-11-28T21:32:21.205Z,981.5
2022-11-28T21:34:23.159Z,981.4
2022-11-28T21:36:25.285Z,981.4
2022-11-28T21:38:26.802Z,981.4
2022-11-28T21:40:28.689Z,981.3
2022-11-28T21:42:30.586Z,981.3
2022-11-28T21:44:31.608Z,981.3
2022-11-28T21:46:33.338Z,981.2
2022-11-28T21:48:34.868Z,981.3
2022-11-28T21:50:35.970Z,981.2
2022-11-28T21:52:37.590Z,981.2
2022-11-28T21:56:40.799Z,981.3
2022-11-28T21:58:41.755Z,981.3
2022-11-28T22:00:53.412Z,981.3
2022-11-28T22:02:44.896Z,981.4
2022-11-28T22:04:46.653Z,981.5
2022-11-28T22:06:47.573Z,981.5
2022-11-28T22:08:49.225Z,981.5
2022-11-28T22:10:51.185Z,981.4
2022-11-28T22:12:52.892Z,981.4
2022-11-28T22:14:54.897Z,981.5
2022-11-28T22:16:56.297Z,981.5
2022-11-28T22:18:57.589Z,981.4
2022-11-28T22:23:00.311Z,981.5
2022-11-28T22:25:01.616Z,981.4
2022-11-28T22:27:02.653Z,981.5
2022-11-28T22:29:04.075Z,981.5
2022-11-28T22:31:05.595Z,981.5
2022-11-28T22:33:06.976Z,981.5
2022-11-28T22:35:08.323Z,981.5
2022-11-28T22:37:09.868Z,981.5
2022-11-28T22:39:10.974Z,981.5
2022-11-28T22:41:12.913Z,981.5
2022-11-28T22:43:14.680Z,981.5
2022-11-28T22:45:15.883Z,981.5
2022-11-28T22:47:17.442Z,981.5
2022-11-28T22:49:18.823Z,981.5
2022-11-28T22:51:20.710Z,981.5
2022-11-28T22:53:22.581Z,981.5
2022-11-28T22:55:23.669Z,981.5
2022-11-28T22:57:25.273Z,981.5
2022-11-28T22:59:26.517Z,981.5
2022-11-28T23:01:27.893Z,981.4
2022-11-28T23:03:29.287Z,981.6
2022-11-28T23:05:30.241Z,981.5
2022-11-28T23:07:32.209Z,981.4
2022-11-28T23:09:33.658Z,981.4
2022-11-28T23:11:35.348Z,981.5
2022-11-28T23:13:37.419Z,981.5
2022-11-28T23:15:43.057Z,981.5
2022-11-28T23:17:40.334Z,981.4
2022-11-28T23:21:43.669Z,981.5
2022-11-28T23:23:45.098Z,981.4
2022-11-28T23:25:46.792Z,981.5
2022-11-28T23:27:48.278Z,981.5
2022-11-28T23:29:49.869Z,981.5
2022-11-28T23:31:51.482Z,981.5
2022-11-28T23:33:53.189Z,981.6
2022-11-28T23:35:54.522Z,981.6
2022-11-28T23:37:55.932Z,981.5
2022-11-28T23:39:57.459Z,981.5
2022-11-28T23:41:58.900Z,981.5
2022-11-28T23:44:00.272Z,981.5
2022-11-28T23:46:01.404Z,981.5
2022-11-28T23:48:02.385Z,981.5
2022-11-28T23:50:04.211Z,981.5
2022-11-28T23:52:05.824Z,981.6
2022-11-28T23:54:06.936Z,981.5
2022-11-28T23:56:08.127Z,981.6
2022-11-28T23:58:09.568Z,981.6
